This is the latest recevied weather packets stored in our database for station/object SQ6IUS-13. If no packets are shown the sender has not sent any weather packets the latest 10 day(s).
| Time | Temp. | Humidity | Pressure | Rain* | Wind** | Luminosity | Snow |
|---|---|---|---|---|---|---|---|
| 1777547759 | 17.78° C | 29% | 1030.9 hPa | - | - | - | - |
| 1777546859 | 26.11° C | 21% | 1030.6 hPa | - | - | - | - |
| 1777545959 | 17.78° C | 27% | 1031.1 hPa | - | - | - | - |
| 1777545059 | 24.44° C | 23% | 1030.9 hPa | - | - | - | - |
| 1777543258 | 17.78° C | 27% | 1031.2 hPa | - | - | - | - |
| 1777542358 | 21.67° C | 25% | 1031.4 hPa | - | - | - | - |
| 1777541458 | 16.67° C | 29% | 1031.6 hPa | - | - | - | - |
| 1777540558 | 18.89° C | 27% | 1031.8 hPa | - | - | - | - |
| 1777539658 | 15° C | 32% | 1031.9 hPa | - | - | - | - |
| 1777538758 | 15.56° C | 30% | 1031.9 hPa | - | - | - | - |
| 1777537858 | 13.33° C | 34% | 1032 hPa | - | - | - | - |
| 1777536958 | 12.22° C | 35% | 1032.1 hPa | - | - | - | - |
| 1777536063 | 12.22° C | 35% | 1032.2 hPa | - | - | - | - |
| 1777534258 | 11.11° C | 42% | 1032 hPa | - | - | - | - |
| 1777533357 | 9.44° C | 46% | 1032.1 hPa | - | - | - | - |
| 1777532458 | 7.22° C | 62% | 1032.3 hPa | - | - | - | - |
| 1777531559 | 6.11° C | 94% | 1032.4 hPa | - | - | - | - |
| 1777530284 | 4.44° C | 100% | 1032.5 hPa | - | - | - | - |
| 1777529386 | 3.33° C | 100% | 1032.5 hPa | - | - | - | - |
| 1777528486 | 2.22° C | 100% | 1032.5 hPa | - | - | - | - |
| 1777527587 | 1.11° C | 100% | 1032.6 hPa | - | - | - | - |
| 1777526688 | 0° C | 100% | 1032.6 hPa | - | - | - | - |
| 1777525789 | -1.67° C | 100% | 1032.7 hPa | - | - | - | - |
| 1777524891 | -2.22° C | 100% | 1032.7 hPa | - | - | - | - |
| 1777523992 | -2.78° C | 100% | 1032.6 hPa | - | - | - | - |
* Rain since midnight (hover to see other rain measurements)
** Current wind speed in m/s (hover to see current wind gust speed)